Time;durP1;ratioP1;P1;durP2;ratioP2;P2;SDS_P1;SDS_P2;PMS_P1;PMS_P2;Temp;Humidity;BMP_temperature;BMP_pressure;BME280_temperature;BME280_humidity;BME280_pressure;Samples;Min_cycle;Max_cycle;Signal;HPM_P1;HPM_P2
2024/01/07 00:00:19;;;;;;;14.30;10.45;;;0.70;99.90;;;;;;5134554;27;20416;-94
2024/01/07 00:02:45;;;;;;;13.05;10.75;;;0.70;99.90;;;;;;5137271;27;20577;-92
2024/01/07 00:05:11;;;;;;;14.18;10.73;;;0.90;99.90;;;;;;5137437;27;20391;-96
2024/01/07 00:07:36;;;;;;;15.07;10.65;;;0.80;99.90;;;;;;5137003;27;20393;-93
2024/01/07 00:10:03;;;;;;;15.20;11.23;;;0.70;99.90;;;;;;5136178;27;20415;-93
2024/01/07 00:12:29;;;;;;;14.65;11.05;;;0.70;99.90;;;;;;5134085;27;20937;-93
2024/01/07 00:14:54;;;;;;;15.40;11.48;;;0.70;99.90;;;;;;5134818;27;20397;-90
2024/01/07 00:17:20;;;;;;;15.90;12.17;;;0.70;99.90;;;;;;5132991;27;20411;-90
2024/01/07 00:19:46;;;;;;;17.63;12.52;;;0.90;99.90;;;;;;5117007;27;20415;-89
2024/01/07 00:22:12;;;;;;;16.90;12.00;;;0.90;99.90;;;;;;5112559;27;20399;-94
2024/01/07 00:24:37;;;;;;;16.98;11.40;;;0.80;99.90;;;;;;5113541;27;20455;-91
2024/01/07 00:27:03;;;;;;;15.52;11.82;;;0.80;99.90;;;;;;5113474;27;20410;-93
2024/01/07 00:29:30;;;;;;;15.98;12.18;;;0.70;99.90;;;;;;5130655;27;20394;-91
2024/01/07 00:31:56;;;;;;;15.30;11.88;;;0.80;99.90;;;;;;5113525;27;20482;-89
2024/01/07 00:34:21;;;;;;;14.00;11.10;;;0.70;99.90;;;;;;5112135;27;20745;-91
2024/01/07 00:36:47;;;;;;;14.87;11.47;;;0.70;99.90;;;;;;5114413;27;20874;-91
2024/01/07 00:39:12;;;;;;;15.07;11.18;;;0.70;99.90;;;;;;5112759;27;20481;-93
2024/01/07 00:41:38;;;;;;;14.90;11.00;;;0.70;99.90;;;;;;5113458;27;20430;-90
2024/01/07 00:44:04;;;;;;;15.13;11.50;;;0.70;99.90;;;;;;5112853;27;20905;-92
2024/01/07 00:46:29;;;;;;;13.97;11.13;;;0.70;99.90;;;;;;5144325;27;20496;-90
2024/01/07 00:48:55;;;;;;;15.10;11.13;;;0.60;99.90;;;;;;5132700;27;20495;-90
2024/01/07 00:51:21;;;;;;;14.68;10.50;;;0.60;99.90;;;;;;5132836;27;20460;-92
2024/01/07 00:53:46;;;;;;;14.70;10.93;;;0.60;99.90;;;;;;5134066;27;20443;-93
2024/01/07 00:56:12;;;;;;;14.90;10.77;;;0.60;99.90;;;;;;5132472;27;20986;-94
2024/01/07 00:58:38;;;;;;;15.17;11.60;;;0.60;99.90;;;;;;5151265;27;20393;-90
2024/01/07 01:01:05;;;;;;;15.47;11.27;;;0.60;99.90;;;;;;5132851;27;20405;-91
2024/01/07 01:03:31;;;;;;;13.68;10.10;;;0.60;99.90;;;;;;5133599;27;20495;-91
2024/01/07 01:05:57;;;;;;;15.40;11.60;;;0.60;99.90;;;;;;5133325;27;20801;-90
2024/01/07 01:08:23;;;;;;;13.87;10.50;;;0.60;99.90;;;;;;5133591;27;20393;-91
2024/01/07 01:10:48;;;;;;;14.95;10.88;;;0.60;99.90;;;;;;5133221;27;20415;-91
2024/01/07 01:13:14;;;;;;;13.40;10.53;;;0.60;99.90;;;;;;5149377;27;20476;-92
2024/01/07 01:15:40;;;;;;;14.73;10.63;;;0.60;99.90;;;;;;5134008;27;20891;-90
2024/01/07 01:18:05;;;;;;;15.85;11.02;;;0.60;99.90;;;;;;5131921;27;20397;-90
2024/01/07 01:20:31;;;;;;;16.05;11.77;;;0.60;99.90;;;;;;5133528;27;20396;-95
2024/01/07 01:22:57;;;;;;;14.10;11.48;;;0.70;99.90;;;;;;5132018;27;20899;-94
2024/01/07 01:25:22;;;;;;;15.87;12.23;;;0.80;99.90;;;;;;5133190;27;20413;-92
2024/01/07 01:27:48;;;;;;;17.23;12.00;;;0.40;99.90;;;;;;5132542;27;20416;-89
2024/01/07 01:30:14;;;;;;;18.00;12.50;;;0.70;99.90;;;;;;5132129;27;20405;-92
2024/01/07 01:32:40;;;;;;;15.27;12.05;;;0.70;99.90;;;;;;5133114;27;20395;-90
2024/01/07 01:35:06;;;;;;;16.02;12.18;;;0.70;99.90;;;;;;5131889;27;20453;-91
2024/01/07 01:37:32;;;;;;;14.18;10.98;;;0.70;99.90;;;;;;5133088;27;20397;-92
2024/01/07 01:39:59;;;;;;;13.18;10.07;;;0.70;99.90;;;;;;5131684;27;20400;-91
2024/01/07 01:42:25;;;;;;;14.57;10.60;;;0.70;99.90;;;;;;5132790;27;20756;-90
2024/01/07 01:44:51;;;;;;;13.40;10.13;;;0.70;99.90;;;;;;5149420;27;20985;-90
2024/01/07 01:47:17;;;;;;;14.57;10.10;;;0.70;99.90;;;;;;5149898;27;20766;-92
2024/01/07 01:49:43;;;;;;;13.75;9.98;;;0.50;99.90;;;;;;5133016;27;20401;-90
2024/01/07 01:52:09;;;;;;;13.45;9.65;;;0.70;99.90;;;;;;5123881;27;20427;-91
2024/01/07 01:54:35;;;;;;;13.48;9.52;;;0.90;99.90;;;;;;5112669;27;20730;-90
2024/01/07 01:57:01;;;;;;;13.80;10.13;;;0.70;99.90;;;;;;5110951;27;20430;-93
2024/01/07 01:59:28;;;;;;;12.98;9.40;;;0.70;99.90;;;;;;5112077;27;20402;-92
2024/01/07 02:01:55;;;;;;;13.98;9.70;;;0.80;99.90;;;;;;5110730;27;20402;-91
2024/01/07 02:04:20;;;;;;;13.43;9.52;;;0.80;99.90;;;;;;5111531;27;20419;-91
2024/01/07 02:06:46;;;;;;;12.02;8.95;;;0.70;99.90;;;;;;5111275;27;20506;-90
2024/01/07 02:09:12;;;;;;;14.02;8.73;;;0.80;99.90;;;;;;5111032;27;20391;-91
2024/01/07 02:11:38;;;;;;;10.60;8.00;;;0.70;99.90;;;;;;5128379;27;20920;-93
2024/01/07 02:14:03;;;;;;;11.03;7.67;;;0.70;99.90;;;;;;5110382;27;20753;-92
2024/01/07 02:16:29;;;;;;;9.30;6.82;;;0.70;99.90;;;;;;5112088;27;20407;-93
2024/01/07 02:18:55;;;;;;;10.18;7.43;;;0.80;99.90;;;;;;5110435;27;20397;-92
2024/01/07 02:21:20;;;;;;;10.82;7.78;;;0.80;99.90;;;;;;5111063;27;20497;-94
2024/01/07 02:23:46;;;;;;;11.87;8.47;;;0.70;99.90;;;;;;5127863;27;20911;-92
2024/01/07 02:26:12;;;;;;;12.97;8.47;;;0.60;99.90;;;;;;5110791;27;20399;-90
2024/01/07 02:28:37;;;;;;;11.93;8.63;;;0.70;99.90;;;;;;5111491;27;20383;-90
2024/01/07 02:31:03;;;;;;;11.63;8.52;;;0.70;99.90;;;;;;5110090;27;20422;-91
2024/01/07 02:33:30;;;;;;;13.00;9.10;;;0.70;99.90;;;;;;5111768;27;20440;-91
2024/01/07 02:35:56;;;;;;;12.05;8.55;;;0.90;99.90;;;;;;5127719;27;20403;-89
2024/01/07 02:38:22;;;;;;;10.55;7.90;;;0.80;99.90;;;;;;5111465;27;20399;-90
2024/01/07 02:40:47;;;;;;;12.02;8.43;;;0.70;99.90;;;;;;5110281;27;20407;-91
2024/01/07 02:43:13;;;;;;;10.52;7.90;;;0.70;99.90;;;;;;5127975;27;20406;-91
2024/01/07 02:45:39;;;;;;;11.23;7.90;;;0.60;99.90;;;;;;5110885;27;20446;-90
2024/01/07 02:48:07;;;;;;;11.67;7.33;;;0.70;99.90;;;;;;5127751;27;20434;-94
2024/01/07 02:50:33;;;;;;;10.82;7.00;;;0.70;99.90;;;;;;5111483;27;20425;-90
2024/01/07 02:52:59;;;;;;;8.80;6.70;;;0.60;99.90;;;;;;5109781;28;21070;-91
2024/01/07 02:55:24;;;;;;;8.95;6.15;;;0.90;99.90;;;;;;5111545;27;20400;-93
2024/01/07 02:57:50;;;;;;;8.93;6.20;;;0.60;99.90;;;;;;5110161;27;20417;-92
2024/01/07 03:00:16;;;;;;;7.77;5.90;;;0.60;99.90;;;;;;5110991;28;20410;-91
2024/01/07 03:02:41;;;;;;;9.07;5.72;;;0.60;99.90;;;;;;5127361;27;20406;-91
2024/01/07 03:05:08;;;;;;;9.60;5.77;;;0.60;99.90;;;;;;5110473;28;20433;-91
2024/01/07 03:07:33;;;;;;;7.05;4.65;;;0.60;99.90;;;;;;5111284;28;20896;-93
2024/01/07 03:09:59;;;;;;;9.40;5.37;;;0.60;99.90;;;;;;5109868;28;20411;-92
2024/01/07 03:12:25;;;;;;;6.75;4.97;;;0.60;99.90;;;;;;5129117;27;20797;-94
2024/01/07 03:14:50;;;;;;;7.82;4.90;;;0.60;99.90;;;;;;5114134;27;20403;-92
2024/01/07 03:17:17;;;;;;;6.50;4.83;;;0.60;99.90;;;;;;5115032;27;20846;-92
2024/01/07 03:19:43;;;;;;;7.13;4.93;;;0.70;99.90;;;;;;5114127;27;20403;-94
2024/01/07 03:22:08;;;;;;;6.53;4.55;;;0.60;99.90;;;;;;5114906;27;20451;-93
2024/01/07 03:24:34;;;;;;;7.53;4.43;;;0.60;99.90;;;;;;5114654;27;20409;-91
2024/01/07 03:27:00;;;;;;;5.28;3.80;;;0.60;99.90;;;;;;5131293;27;20387;-93
2024/01/07 03:29:25;;;;;;;6.75;4.32;;;0.60;99.90;;;;;;5119499;27;20393;-91
2024/01/07 03:31:52;;;;;;;7.00;4.30;;;0.60;99.90;;;;;;5134006;27;20424;-90
2024/01/07 03:34:18;;;;;;;5.73;3.87;;;0.60;99.90;;;;;;5135425;27;20407;-92
2024/01/07 03:36:44;;;;;;;6.97;4.05;;;0.70;99.90;;;;;;5134418;27;20393;-90
2024/01/07 03:39:10;;;;;;;5.50;3.87;;;0.60;99.90;;;;;;5151849;27;20393;-92
2024/01/07 03:41:35;;;;;;;5.90;4.03;;;0.70;99.90;;;;;;5134846;27;20419;-91
2024/01/07 03:44:01;;;;;;;6.87;3.73;;;0.60;99.90;;;;;;5129150;27;20839;-92
2024/01/07 03:46:27;;;;;;;6.43;4.30;;;1.20;99.90;;;;;;5114700;27;20406;-92
2024/01/07 03:48:53;;;;;;;4.95;3.88;;;0.70;99.90;;;;;;5113539;27;20421;-92
2024/01/07 03:51:19;;;;;;;5.47;3.70;;;0.60;99.90;;;;;;5114641;27;20785;-94
2024/01/07 03:53:44;;;;;;;5.78;3.72;;;0.60;99.90;;;;;;5113576;27;20402;-93
2024/01/07 03:56:10;;;;;;;5.68;3.45;;;0.60;99.90;;;;;;5114058;27;20442;-91
2024/01/07 03:58:36;;;;;;;5.00;3.67;;;0.60;99.90;;;;;;5113773;27;20483;-92
2024/01/07 04:01:02;;;;;;;4.53;3.00;;;0.60;99.90;;;;;;5114071;27;20769;-90
2024/01/07 04:03:27;;;;;;;5.83;3.90;;;0.40;99.90;;;;;;5113704;27;20483;-90
2024/01/07 04:05:53;;;;;;;5.03;3.53;;;0.60;99.90;;;;;;5130798;27;20399;-91
2024/01/07 04:08:19;;;;;;;6.05;3.88;;;0.70;99.90;;;;;;5114518;27;20947;-92
2024/01/07 04:10:44;;;;;;;5.18;3.63;;;0.60;99.90;;;;;;5112673;27;20909;-88
2024/01/07 04:13:10;;;;;;;5.35;3.40;;;0.60;99.90;;;;;;5113996;27;20399;-92
2024/01/07 04:15:39;;;;;;;5.07;3.07;;;0.50;99.90;;;;;;5113503;27;20513;-91
2024/01/07 04:18:05;;;;;;;4.22;2.70;;;0.60;99.90;;;;;;5097083;27;20407;-93
2024/01/07 04:20:31;;;;;;;6.32;2.70;;;0.60;99.90;;;;;;5113256;27;20584;-92
2024/01/07 04:22:57;;;;;;;4.68;2.50;;;0.60;99.90;;;;;;5112535;27;20403;-93
2024/01/07 04:25:23;;;;;;;4.28;2.13;;;0.60;99.90;;;;;;5113890;27;20897;-92
2024/01/07 04:27:49;;;;;;;4.35;2.15;;;0.70;99.90;;;;;;5112671;27;20398;-92
2024/01/07 04:30:15;;;;;;;4.40;2.50;;;0.60;99.90;;;;;;5113640;27;20597;-94
2024/01/07 04:32:40;;;;;;;3.97;2.23;;;0.60;99.90;;;;;;5113279;27;20398;-92
2024/01/07 04:35:08;;;;;;;5.53;2.55;;;0.60;99.90;;;;;;5135425;27;20393;-93
2024/01/07 04:37:34;;;;;;;4.53;2.83;;;0.50;99.90;;;;;;5132990;27;20480;-93
2024/01/07 04:40:00;;;;;;;6.43;2.60;;;0.50;99.90;;;;;;5114003;27;20921;-93
2024/01/07 04:42:26;;;;;;;5.05;2.65;;;0.50;99.90;;;;;;5113475;27;20401;-91
2024/01/07 04:44:52;;;;;;;3.63;2.40;;;0.60;99.90;;;;;;5112610;27;20391;-90
2024/01/07 04:47:31;;;;;;;4.37;2.73;;;0.50;99.90;;;;;;5113607;27;20905;-91
2024/01/07 04:49:57;;;;;;;6.53;2.97;;;0.50;99.90;;;;;;5112276;27;20889;-91
2024/01/07 04:52:24;;;;;;;4.70;2.65;;;0.60;99.90;;;;;;5113373;27;20429;-90
2024/01/07 04:54:55;;;;;;;3.70;2.45;;;0.60;99.90;;;;;;5112312;27;20434;-91
2024/01/07 04:57:22;;;;;;;4.93;2.08;;;0.60;99.90;;;;;;5112383;27;20398;-93
2024/01/07 04:59:49;;;;;;;3.80;2.00;;;0.50;99.90;;;;;;5113456;27;20394;-89
2024/01/07 05:02:14;;;;;;;3.42;1.80;;;0.50;99.90;;;;;;5112321;27;20781;-94
2024/01/07 05:04:41;;;;;;;2.97;2.00;;;0.50;99.90;;;;;;5117160;27;20389;-92
2024/01/07 05:07:06;;;;;;;4.00;1.83;;;0.50;99.90;;;;;;5149412;27;20510;-93
2024/01/07 05:09:33;;;;;;;3.50;1.80;;;0.60;99.90;;;;;;5133721;27;20397;-91
2024/01/07 05:11:59;;;;;;;4.57;1.83;;;0.70;99.90;;;;;;5149108;27;20416;-91
2024/01/07 05:14:24;;;;;;;5.47;1.70;;;0.60;99.90;;;;;;5133199;27;20385;-92
2024/01/07 05:16:50;;;;;;;3.92;1.98;;;0.40;99.90;;;;;;5133400;27;20393;-94
2024/01/07 05:19:16;;;;;;;5.00;1.70;;;0.70;99.90;;;;;;5136288;27;20405;-93
2024/01/07 05:21:42;;;;;;;3.30;1.45;;;0.70;99.90;;;;;;5110809;27;20394;-92
2024/01/07 05:24:08;;;;;;;3.63;1.40;;;0.60;99.90;;;;;;5127809;27;20399;-91
2024/01/07 05:26:44;;;;;;;3.35;1.25;;;0.60;99.90;;;;;;5113230;27;20481;-92
2024/01/07 05:29:11;;;;;;;3.85;1.33;;;0.80;99.90;;;;;;5112014;27;20414;-93
2024/01/07 05:31:40;;;;;;;3.80;1.33;;;0.60;99.90;;;;;;5109669;27;20946;-91
2024/01/07 05:34:06;;;;;;;5.22;1.50;;;0.80;99.90;;;;;;5112153;27;20434;-93
2024/01/07 05:36:32;;;;;;;3.47;1.35;;;0.80;99.90;;;;;;5124476;27;20459;-91
2024/01/07 05:38:57;;;;;;;4.15;1.50;;;0.70;99.90;;;;;;5133264;27;20397;-89
2024/01/07 05:41:23;;;;;;;3.90;1.40;;;1.00;99.90;;;;;;5131332;27;20400;-91
2024/01/07 05:43:52;;;;;;;3.20;1.20;;;0.70;99.90;;;;;;5150370;27;20401;-92
2024/01/07 05:46:17;;;;;;;2.88;1.10;;;0.80;99.90;;;;;;5148969;27;20450;-93
2024/01/07 05:48:49;;;;;;;3.35;1.20;;;0.90;99.90;;;;;;5133121;27;20393;-93
2024/01/07 05:51:15;;;;;;;3.40;0.93;;;0.70;99.90;;;;;;5131691;27;20421;-93
2024/01/07 05:53:42;;;;;;;2.58;1.13;;;0.80;99.90;;;;;;5149458;27;20401;-93
2024/01/07 05:56:07;;;;;;;2.67;0.90;;;0.80;99.90;;;;;;5132346;27;20487;-93
2024/01/07 05:58:33;;;;;;;2.97;1.03;;;0.80;99.90;;;;;;5130763;27;20493;-92
2024/01/07 06:01:00;;;;;;;2.80;1.00;;;0.60;99.90;;;;;;5133017;27;20934;-94
2024/01/07 06:03:26;;;;;;;3.05;0.68;;;0.60;99.90;;;;;;5131326;27;20417;-94
2024/01/07 06:05:52;;;;;;;2.70;0.80;;;0.80;99.90;;;;;;5132201;27;20393;-92
2024/01/07 06:08:17;;;;;;;3.67;0.95;;;0.90;99.90;;;;;;5111296;27;20414;-92
2024/01/07 06:10:43;;;;;;;2.85;0.70;;;0.80;99.90;;;;;;5127412;27;20777;-94
2024/01/07 06:13:09;;;;;;;3.53;0.70;;;0.80;99.90;;;;;;5111283;27;20407;-93
2024/01/07 06:15:35;;;;;;;2.53;0.80;;;0.70;99.90;;;;;;5111142;27;20862;-94
2024/01/07 06:18:01;;;;;;;2.45;0.52;;;0.60;99.90;;;;;;5135999;27;20922;-91
2024/01/07 06:20:28;;;;;;;2.80;0.70;;;0.60;99.90;;;;;;5128658;27;20887;-89
2024/01/07 06:22:53;;;;;;;1.90;0.70;;;0.60;99.90;;;;;;5111676;27;20810;-92
2024/01/07 06:25:20;;;;;;;2.53;0.68;;;0.60;99.90;;;;;;5127306;27;20468;-91
2024/01/07 06:27:46;;;;;;;3.50;0.90;;;0.60;99.90;;;;;;5111478;27;20399;-93
2024/01/07 06:30:12;;;;;;;2.50;0.70;;;0.80;99.90;;;;;;5110612;27;20394;-91
2024/01/07 06:32:38;;;;;;;3.08;0.57;;;0.70;99.90;;;;;;5113764;27;20425;-92
2024/01/07 06:35:04;;;;;;;4.78;0.60;;;0.70;99.90;;;;;;5132274;27;20389;-95
2024/01/07 06:37:30;;;;;;;3.00;0.63;;;0.70;99.90;;;;;;5130704;27;20393;-92
2024/01/07 06:39:56;;;;;;;3.27;0.80;;;0.70;99.90;;;;;;5132461;27;20466;-92
2024/01/07 06:42:22;;;;;;;3.60;0.70;;;0.90;99.90;;;;;;5121242;27;20403;-92
2024/01/07 06:44:48;;;;;;;2.20;0.60;;;0.70;99.90;;;;;;5111179;27;20394;-92
2024/01/07 06:47:13;;;;;;;2.08;0.63;;;0.50;99.90;;;;;;5110307;27;20902;-91
2024/01/07 06:49:40;;;;;;;3.63;0.60;;;0.70;99.90;;;;;;5111165;27;20402;-95
2024/01/07 06:52:05;;;;;;;2.63;0.70;;;0.80;99.90;;;;;;5111018;27;20501;-94
2024/01/07 06:54:31;;;;;;;2.13;0.68;;;0.70;99.90;;;;;;5110584;27;20438;-91
2024/01/07 06:56:57;;;;;;;3.15;0.70;;;0.80;99.90;;;;;;5128374;27;20436;-90
2024/01/07 06:59:22;;;;;;;2.00;0.60;;;0.60;99.90;;;;;;5109753;28;20457;-92
2024/01/07 07:01:48;;;;;;;3.47;0.80;;;0.70;99.90;;;;;;5111403;27;20399;-90
2024/01/07 07:04:14;;;;;;;3.30;0.80;;;0.60;99.90;;;;;;5109886;27;20394;-92
2024/01/07 07:06:40;;;;;;;2.70;0.82;;;0.60;99.90;;;;;;5110673;27;20563;-90
2024/01/07 07:09:05;;;;;;;3.78;0.85;;;0.60;99.90;;;;;;5109918;28;20403;-94
2024/01/07 07:11:32;;;;;;;2.75;0.90;;;0.70;99.90;;;;;;5110284;27;20463;-91
2024/01/07 07:13:58;;;;;;;2.53;0.73;;;0.60;99.90;;;;;;5111088;28;20493;-93
2024/01/07 07:16:23;;;;;;;2.90;0.60;;;0.50;99.90;;;;;;5126862;27;21027;-92
2024/01/07 07:18:49;;;;;;;3.27;0.83;;;0.60;99.90;;;;;;5111764;28;20459;-91
2024/01/07 07:21:15;;;;;;;2.58;0.80;;;0.60;99.90;;;;;;5109555;28;20399;-88
2024/01/07 07:23:40;;;;;;;2.85;1.00;;;0.80;99.90;;;;;;5110658;27;20399;-92
2024/01/07 07:26:08;;;;;;;3.60;0.70;;;0.60;99.90;;;;;;5109958;27;20406;-92
2024/01/07 07:28:33;;;;;;;3.65;0.60;;;0.60;99.90;;;;;;5110257;28;20421;-90
2024/01/07 07:30:59;;;;;;;2.47;0.70;;;0.60;99.90;;;;;;5110217;28;20417;-91
2024/01/07 07:33:25;;;;;;;3.40;0.90;;;0.60;99.90;;;;;;5110012;28;20455;-94
2024/01/07 07:35:50;;;;;;;3.00;0.93;;;0.50;99.90;;;;;;5110998;27;20405;-91
2024/01/07 07:38:16;;;;;;;2.93;0.97;;;0.70;99.90;;;;;;5108801;27;20486;-90
2024/01/07 07:40:42;;;;;;;3.40;1.00;;;0.50;99.90;;;;;;5110449;27;20969;-94
2024/01/07 07:43:08;;;;;;;2.30;0.60;;;0.30;99.90;;;;;;5109659;28;20769;-92
2024/01/07 07:45:34;;;;;;;2.85;0.85;;;0.50;99.90;;;;;;5110345;28;20901;-89
2024/01/07 07:48:00;;;;;;;2.47;0.70;;;0.30;99.90;;;;;;5109844;28;20399;-91
2024/01/07 07:50:25;;;;;;;3.50;1.10;;;0.10;99.90;;;;;;5109875;28;20915;-92
2024/01/07 07:52:51;;;;;;;2.37;0.90;;;0.20;99.90;;;;;;5110732;27;20482;-92
2024/01/07 07:55:17;;;;;;;3.42;1.10;;;0.20;99.90;;;;;;5108822;28;20768;-93
2024/01/07 07:57:42;;;;;;;2.63;1.02;;;0.20;99.90;;;;;;5111206;27;20398;-93
2024/01/07 08:00:12;;;;;;;3.50;1.05;;;0.20;99.90;;;;;;5112988;27;20445;-92
2024/01/07 08:02:38;;;;;;;3.60;1.00;;;0.00;99.90;;;;;;5114321;27;20410;-90
2024/01/07 08:05:04;;;;;;;3.53;0.90;;;0.00;99.90;;;;;;5113685;27;20406;-92
2024/01/07 08:07:29;;;;;;;3.10;1.00;;;0.00;99.90;;;;;;5113999;27;20434;-89
2024/01/07 08:09:57;;;;;;;2.67;0.80;;;-0.10;99.90;;;;;;5113998;27;20435;-90
2024/01/07 08:12:23;;;;;;;3.20;1.15;;;-0.10;99.90;;;;;;5113139;27;20797;-90
2024/01/07 08:14:49;;;;;;;3.30;1.23;;;-0.10;99.90;;;;;;5114480;27;20444;-89
2024/01/07 08:17:15;;;;;;;2.47;0.93;;;-0.20;99.90;;;;;;5129985;27;20449;-88
2024/01/07 08:19:41;;;;;;;3.27;1.00;;;0.10;99.90;;;;;;5114197;27;20403;-93
2024/01/07 08:22:06;;;;;;;4.07;1.13;;;-0.20;99.90;;;;;;5129637;27;20771;-95
2024/01/07 08:24:32;;;;;;;2.35;1.08;;;-0.10;99.90;;;;;;5119053;27;20903;-94
2024/01/07 08:26:58;;;;;;;2.90;0.95;;;-0.20;99.90;;;;;;5133848;27;20404;-90
2024/01/07 08:29:24;;;;;;;4.00;1.00;;;-0.10;99.90;;;;;;5112103;27;20407;-90
2024/01/07 08:31:50;;;;;;;3.43;1.37;;;-0.10;99.90;;;;;;5094690;27;20424;-94
2024/01/07 08:34:16;;;;;;;3.42;1.20;;;0.00;99.90;;;;;;5111511;27;20399;-93
2024/01/07 08:36:41;;;;;;;3.17;1.00;;;0.10;99.90;;;;;;5114285;27;20877;-93
2024/01/07 08:39:08;;;;;;;3.80;1.27;;;0.20;99.90;;;;;;5108159;27;20398;-92
2024/01/07 08:41:33;;;;;;;2.83;1.23;;;0.50;99.90;;;;;;5113295;27;20863;-91
2024/01/07 08:43:59;;;;;;;3.60;1.27;;;0.40;99.90;;;;;;5112669;27;20422;-91
2024/01/07 08:46:25;;;;;;;4.17;1.13;;;0.40;99.90;;;;;;5113571;27;20403;-92
2024/01/07 08:48:50;;;;;;;3.10;1.20;;;0.60;99.90;;;;;;5113404;27;20907;-92
2024/01/07 08:51:16;;;;;;;2.83;1.20;;;0.50;99.90;;;;;;5128269;27;20518;-93
2024/01/07 08:53:42;;;;;;;2.90;1.00;;;0.50;99.90;;;;;;5113333;27;20901;-93
2024/01/07 08:56:08;;;;;;;3.73;1.37;;;0.60;99.90;;;;;;5111347;27;20409;-91
2024/01/07 08:58:34;;;;;;;3.28;1.27;;;0.70;99.90;;;;;;5113389;27;20387;-93
2024/01/07 09:01:00;;;;;;;4.35;1.20;;;0.70;99.90;;;;;;5112099;27;20447;-90
2024/01/07 09:03:25;;;;;;;2.08;0.70;;;0.60;99.90;;;;;;5115771;27;20403;-91
2024/01/07 09:05:52;;;;;;;3.63;0.90;;;0.70;99.90;;;;;;5132439;27;20409;-93
2024/01/07 09:08:18;;;;;;;1.75;0.80;;;1.00;99.90;;;;;;5150257;27;20405;-94
2024/01/07 09:10:44;;;;;;;2.07;0.90;;;0.80;99.90;;;;;;5149983;27;20547;-95
2024/01/07 09:13:09;;;;;;;3.20;1.10;;;0.90;99.90;;;;;;5132047;27;21103;-92
2024/01/07 09:15:35;;;;;;;2.35;0.70;;;0.80;99.90;;;;;;5133498;27;20473;-94
2024/01/07 09:18:00;;;;;;;3.30;1.10;;;0.90;99.90;;;;;;5132473;27;20397;-90
2024/01/07 09:20:27;;;;;;;3.70;0.93;;;0.80;99.90;;;;;;5133925;27;20775;-92
2024/01/07 09:22:53;;;;;;;2.80;0.80;;;1.00;99.90;;;;;;5131926;27;20452;-93
2024/01/07 09:25:18;;;;;;;3.00;0.80;;;0.90;99.90;;;;;;5115683;27;20442;-92
2024/01/07 09:27:44;;;;;;;2.20;0.80;;;0.90;99.90;;;;;;5112002;27;20407;-93
2024/01/07 09:30:11;;;;;;;2.63;1.05;;;0.80;99.90;;;;;;5111659;27;20409;-90
2024/01/07 09:32:37;;;;;;;3.53;1.02;;;1.00;99.90;;;;;;5112369;27;20429;-93
2024/01/07 09:35:05;;;;;;;2.15;1.02;;;1.20;99.90;;;;;;5111275;27;20398;-91
2024/01/07 09:37:33;;;;;;;2.80;0.98;;;1.10;99.90;;;;;;5112101;27;20509;-91
2024/01/07 09:39:58;;;;;;;2.22;1.00;;;1.10;99.90;;;;;;5111539;27;20434;-90
2024/01/07 09:42:24;;;;;;;2.65;0.90;;;1.20;99.90;;;;;;5112892;27;20407;-94
2024/01/07 09:44:51;;;;;;;3.13;0.83;;;1.40;99.90;;;;;;5107360;27;20893;-93
2024/01/07 09:47:17;;;;;;;2.70;0.90;;;1.20;99.90;;;;;;5112569;27;20403;-93
2024/01/07 09:49:43;;;;;;;3.20;1.00;;;1.20;99.90;;;;;;5111255;27;20413;-93
2024/01/07 09:52:11;;;;;;;2.13;0.80;;;1.20;99.90;;;;;;5110423;27;20593;-93
2024/01/07 09:54:38;;;;;;;2.57;1.00;;;1.30;99.90;;;;;;5112794;27;20446;-91
2024/01/07 09:57:10;;;;;;;2.88;1.10;;;1.40;99.90;;;;;;5112062;27;20402;-93
2024/01/07 09:59:39;;;;;;;3.60;1.42;;;1.40;99.90;;;;;;5111554;27;20395;-95
2024/01/07 10:02:07;;;;;;;3.33;1.23;;;1.50;99.90;;;;;;5111229;27;20430;-94
2024/01/07 10:04:33;;;;;;;3.08;1.38;;;1.40;99.90;;;;;;5112150;27;20762;-96
2024/01/07 10:06:59;;;;;;;3.33;1.38;;;1.60;99.90;;;;;;5113051;27;20389;-93
2024/01/07 10:09:34;;;;;;;3.33;1.42;;;1.70;99.90;;;;;;5111828;27;20399;-94
2024/01/07 10:12:00;;;;;;;3.03;1.35;;;1.50;99.90;;;;;;5112249;27;20452;-92
2024/01/07 10:14:26;;;;;;;5.47;1.55;;;1.50;99.90;;;;;;5110200;27;20406;-93
2024/01/07 10:16:54;;;;;;;3.90;1.17;;;1.40;99.90;;;;;;5112011;27;20394;-93
2024/01/07 10:19:22;;;;;;;2.03;1.02;;;1.50;99.90;;;;;;5110455;27;20511;-93
2024/01/07 10:22:01;;;;;;;3.28;1.10;;;1.70;99.90;;;;;;5111159;27;20426;-91
2024/01/07 10:24:34;;;;;;;2.30;0.98;;;1.60;99.90;;;;;;5111967;27;20447;-91
2024/01/07 10:27:00;;;;;;;2.33;0.90;;;1.60;99.90;;;;;;5110771;27;20413;-92
2024/01/07 10:29:27;;;;;;;3.90;1.20;;;1.60;99.90;;;;;;5111876;27;20773;-91
2024/01/07 10:31:55;;;;;;;3.65;1.17;;;1.70;99.90;;;;;;5110189;27;20418;-93
2024/01/07 10:34:23;;;;;;;3.20;1.10;;;1.80;99.90;;;;;;5111647;27;20395;-91
2024/01/07 10:36:51;;;;;;;3.53;1.40;;;2.10;99.90;;;;;;5110699;27;20422;-91
2024/01/07 10:39:17;;;;;;;2.88;1.00;;;1.70;99.90;;;;;;5111016;27;20489;-89
2024/01/07 10:41:44;;;;;;;3.50;1.77;;;1.80;99.90;;;;;;5111132;27;20498;-91
2024/01/07 10:44:10;;;;;;;3.53;1.42;;;2.00;99.90;;;;;;5110175;27;20395;-92
2024/01/07 10:46:37;;;;;;;3.43;1.37;;;1.90;99.90;;;;;;5111522;27;20451;-93
2024/01/07 10:49:19;;;;;;;2.92;1.48;;;2.10;99.90;;;;;;5112846;27;20391;-92
2024/01/07 10:51:48;;;;;;;2.40;1.02;;;2.10;99.90;;;;;;5131424;27;20417;-93
2024/01/07 10:54:16;;;;;;;3.35;1.60;;;2.20;99.90;;;;;;5130970;27;20397;-91
2024/01/07 10:56:50;;;;;;;2.53;1.10;;;2.30;99.90;;;;;;5131057;27;20396;-91
2024/01/07 10:59:17;;;;;;;2.92;1.10;;;2.50;99.90;;;;;;5118785;27;20439;-92
2024/01/07 11:01:43;;;;;;;2.22;1.30;;;2.80;99.90;;;;;;5109428;27;20410;-91
2024/01/07 11:04:23;;;;;;;3.28;1.20;;;3.20;99.90;;;;;;5111347;27;20395;-93
2024/01/07 11:06:57;;;;;;;4.43;1.23;;;3.60;99.90;;;;;;5109948;27;20454;-92
2024/01/07 11:10:01;;;;;;;3.10;1.23;;;4.00;99.90;;;;;;5110461;27;20449;-92
2024/01/07 11:12:27;;;;;;;4.55;1.30;;;4.20;99.90;;;;;;5032908;28;20512;-91
2024/01/07 11:14:53;;;;;;;3.17;1.20;;;4.50;99.90;;;;;;5030931;28;20447;-93
2024/01/07 11:17:37;;;;;;;3.40;1.07;;;4.60;99.00;;;;;;5075369;28;20507;-93
2024/01/07 11:20:08;;;;;;;2.57;1.03;;;4.50;92.90;;;;;;5123402;27;20408;-92
2024/01/07 11:22:34;;;;;;;2.53;1.20;;;4.30;93.50;;;;;;5095401;28;20911;-94
2024/01/07 11:25:22;;;;;;;2.97;1.30;;;4.20;97.60;;;;;;5110959;28;20641;-93
2024/01/07 11:27:48;;;;;;;3.20;1.20;;;4.30;99.30;;;;;;5109361;28;20999;-91
2024/01/07 11:30:20;;;;;;;3.20;1.00;;;4.40;99.70;;;;;;5111036;28;20391;-91
2024/01/07 11:32:46;;;;;;;2.90;1.37;;;4.60;95.70;;;;;;5109666;27;20430;-92
2024/01/07 11:35:13;;;;;;;2.90;1.03;;;4.50;95.60;;;;;;5115147;27;20395;-91
2024/01/07 11:37:39;;;;;;;2.60;1.20;;;4.40;90.70;;;;;;5114453;27;20402;-94
2024/01/07 11:40:07;;;;;;;4.55;1.40;;;4.30;90.90;;;;;;5114472;27;20544;-91
2024/01/07 11:42:32;;;;;;;2.80;1.27;;;4.00;94.80;;;;;;5132081;27;20495;-90
2024/01/07 11:44:58;;;;;;;3.50;1.50;;;3.90;95.90;;;;;;5113609;27;20434;-91
2024/01/07 11:47:27;;;;;;;2.30;1.23;;;4.00;97.50;;;;;;5115508;27;20402;-93
2024/01/07 11:49:54;;;;;;;2.75;1.33;;;3.70;99.30;;;;;;5130105;27;20745;-93
2024/01/07 11:52:20;;;;;;;4.35;1.77;;;3.40;99.90;;;;;;5116476;27;20997;-93
2024/01/07 11:54:47;;;;;;;3.17;2.25;;;3.30;99.90;;;;;;5133725;27;20451;-93
2024/01/07 11:57:13;;;;;;;3.45;1.80;;;3.10;99.90;;;;;;5134134;27;20395;-95
2024/01/07 11:59:39;;;;;;;3.87;1.90;;;3.00;99.90;;;;;;5124457;27;20402;-91
2024/01/07 12:02:05;;;;;;;4.10;1.90;;;2.90;99.90;;;;;;5111983;27;20402;-93
2024/01/07 12:04:32;;;;;;;3.60;1.70;;;3.00;99.90;;;;;;5114595;27;20463;-93
2024/01/07 12:06:58;;;;;;;3.55;1.83;;;3.20;99.90;;;;;;5112256;27;20398;-91
2024/01/07 12:09:25;;;;;;;3.83;1.70;;;3.40;99.90;;;;;;5114283;27;20399;-93
2024/01/07 12:11:51;;;;;;;2.92;1.27;;;3.90;99.90;;;;;;5112331;27;20434;-92
2024/01/07 12:14:17;;;;;;;3.45;1.52;;;4.40;99.90;;;;;;5113166;27;20391;-92
2024/01/07 12:16:44;;;;;;;4.20;1.70;;;4.90;99.90;;;;;;5114776;27;20493;-96
2024/01/07 12:19:12;;;;;;;4.38;1.80;;;5.30;95.70;;;;;;5115404;27;20398;-95
2024/01/07 12:21:39;;;;;;;4.03;1.73;;;5.50;92.20;;;;;;5114131;27;20395;-94
2024/01/07 12:24:06;;;;;;;4.68;2.10;;;5.90;89.20;;;;;;5112310;27;20897;-94
2024/01/07 12:26:33;;;;;;;3.92;1.98;;;5.90;83.80;;;;;;5114360;27;20927;-94
2024/01/07 12:29:03;;;;;;;4.20;2.00;;;5.60;87.30;;;;;;5118506;27;20950;-94
2024/01/07 12:31:32;;;;;;;5.50;2.10;;;5.30;88.20;;;;;;5124900;27;20785;-94
2024/01/07 12:33:58;;;;;;;4.30;2.30;;;4.80;90.30;;;;;;5113309;27;20410;-94
2024/01/07 12:36:24;;;;;;;5.13;2.40;;;4.40;96.40;;;;;;5113398;27;20403;-93
2024/01/07 12:38:57;;;;;;;6.00;2.60;;;4.30;99.90;;;;;;5113352;27;20391;-91
2024/01/07 12:41:23;;;;;;;4.65;2.50;;;3.90;99.90;;;;;;5097591;27;20437;-91
2024/01/07 12:43:50;;;;;;;5.95;3.08;;;3.80;99.90;;;;;;5117730;27;20385;-92
2024/01/07 12:46:18;;;;;;;4.03;1.88;;;3.70;99.90;;;;;;5153153;27;20473;-93
2024/01/07 12:48:44;;;;;;;4.70;2.25;;;3.50;99.90;;;;;;5112998;27;20470;-92